Terminal Aerodrome Forecast
Issued by NWS Newport/Morehead City, NC

Home | Current Version | Previous Version | Text Only | Print | Product List | Glossary Off
Versions: 1 2 3 4 5 6 7 8 9 10 11 12

036
FTUS42 KMHX 150521
TAFEWN
TAF
KEWN 150521Z 1506/1606 05005KT P6SM SCT200
     FM151600 25012KT P6SM BKN200
     FM152300 29005KT P6SM BKN150=

USA.gov is the U.S. government's official web portal to all federal, state and local government web resources and services.